Weather observations for the past three days for
Sacramento Executive Airport
Metric (Imperial)
Date Time (pdt) Wind (kph) Vis. (km) Weather Sky Cond. Temperature (ºC) Relative Humidity Wind Chill (°C) Heat Index (°C) Pressure Precipitation (cm)
Air Dwpt 6 hour altimeter (cm) sea level (mb) 1 hr 3 hr 6 hr
Max. Min.
02 09:53 S 11 16.09 Overcast BKN065 OVC080 20 12.2 61% 76.3 1017.3
02 08:53 SE 7 16.09 Overcast OVC070 18.3 12.2 68% 76.3 1017.3
02 07:53 E 7 16.09 A Few Clouds FEW080 16.1 12.2 78% 76.3 1017.0
02 06:53 Calm 16.09 A Few Clouds FEW080 15 12.2 83% 76.28 1016.7
02 05:53 SE 7 16.09 Fair CLR 15 12.8 87% 76.23 1016.1
02 04:53 Calm 16.09 Fair CLR 15 12.8 16.7 15 87% 76.23 1016.0
02 03:53 SE 6 16.09 Fair CLR 15.6 12.8 84% 76.23 1016.1
02 02:53 S 7 16.09 Mostly Cloudy BKN100 15.6 12.8 84% 76.25 1016.4
02 01:53 SE 9 16.09 Overcast OVC085 16.1 12.2 78% 76.25 1016.4
02 00:53 SE 9 16.09 Fair CLR 15.6 12.8 84% 76.23 1016.2
01 23:53 S 11 16.09 Overcast OVC120 16.7 13.3 80% 76.2 1015.8
01 22:53 SW 15 16.09 Fair CLR 16.7 12.8 23.9 16.7 78% 76.2 1016.0
01 21:53 SW 13 16.09 Fair CLR 17.2 12.2 73% 76.2 1016.0
01 20:53 SW 17 G 35 16.09 Fair CLR 18.3 11.1 63% 76.17 1015.4
01 19:53 SW 26 G 37 16.09 Fair CLR 19.4 11.1 59% 76.1 1014.6
01 18:53 SW 15 G 33 16.09 Fair CLR 20.6 10 51% 76.07 1014.2
01 17:53 SW 20 G 39 16.09 Fair CLR 22.8 8.9 41% 76.05 1013.9
01 16:53 SW 26 G 43 16.09 A Few Clouds FEW055 23.9 8.9 25 20.6 39% 25 76.07 1014.0
01 15:53 S 17 G 31 16.09 A Few Clouds FEW055 24.4 8.3 36% 25 76.07 1014.2
01 14:53 S 13 G 28 16.09 Fair CLR 23.9 8.3 37% 25 76.12 1014.8
01 13:53 SW 15 G 30 16.09 Mostly Cloudy BKN049 23.9 10 42% 25 76.15 1015.0
01 12:53 SW 19 G 30 16.09 Mostly Cloudy BKN048 22.2 10 46% 76.17 1015.5
01 11:53 SW 20 G 37 16.09 Mostly Cloudy BKN049 21.7 10.6 49% 76.2 1015.9
01 10:53 Vrbl 7 16.09 Partly Cloudy SCT037 SCT047 20.6 11.1 21.1 14.4 55% 76.2 1015.8
01 09:53 S 13 16.09 Partly Cloudy FEW026 SCT032 19.4 11.1 59% 76.17 1015.5
01 08:53 S 13 16.09 Fair CLR 16.7 12.2 75% 76.15 1015.2
01 07:53 SE 13 16.09 Fair CLR 15 11.7 81% 76.1 1014.4
01 06:53 S 11 16.09 Fair CLR 14.4 12.2 87% 76.02 1013.5
01 05:53 S 13 16.09 Fair CLR 14.4 12.2 87% 76 1013.0
01 04:53 S 9 16.09 Fair CLR 14.4 11.7 16.1 14.4 84% 75.97 1012.9
01 03:53 S 9 16.09 Fair CLR 14.4 11.7 84% 75.97 1012.6
01 02:53 SE 13 16.09 Mostly Cloudy BKN021 15 11.7 81% 75.95 1012.3
01 01:53 SE 11 16.09 Overcast OVC020 15.6 11.1 75% 75.95 1012.4
01 00:53 SE 9 16.09 Partly Cloudy SCT019 15 11.7 81% 75.95 1012.3
31 23:53 S 13 16.09 Fair CLR 16.1 11.7 75% 75.92 1012.1
31 22:53 S 19 G 30 16.09 Fair CLR 16.1 11.7 22.8 16.1 75% 75.92 1012.1
31 21:53 S 19 G 37 16.09 Fair CLR 16.1 11.7 75% 75.9 1011.9
31 20:53 S 17 G 35 16.09 Fair CLR 16.7 11.7 73% 75.87 1011.5
31 19:53 S 20 G 35 16.09 Fair CLR 17.8 12.2 70% 75.82 1010.9
31 18:53 S 24 G 39 16.09 Fair CLR 19.4 12.2 63% 75.82 1010.8
31 17:53 S 26 G 43 16.09 Fair CLR 21.7 12.2 55% 75.79 1010.4
31 16:53 S 20 G 37 16.09 Fair CLR 22.8 12.2 23.9 18.3 51% 75.79 1010.6
31 15:53 SW 19 G 31 16.09 Fair CLR 22.8 12.2 51% 75.84 1011.0
31 14:53 SW 28 G 44 16.09 Fair CLR 23.3 11.1 46% 75.9 1011.6
31 13:53 SW 26 16.09 Fair CLR 22.2 11.1 50% 75.92 1012.0
31 12:53 S 20 G 39 16.09 Fair CLR 22.2 11.7 52% 75.95 1012.3
31 11:53 SW 20 G 41 16.09 Fair CLR 20 11.7 59% 75.97 1012.7
31 10:53 S 26 G 43 16.09 Fair CLR 18.3 11.7 18.3 13.9 66% 75.97 1012.8
31 09:53 SW 22 G 35 16.09 Fair CLR 16.7 11.7 73% 75.95 1012.4
31 08:53 S 13 16.09 Fair CLR 15 11.7 81% 75.95 1012.3
31 07:53 S 15 16.09 Mostly Cloudy BKN075 14.4 11.7 84% 75.9 1011.8
31 06:53 S 15 16.09 Partly Cloudy SCT075 13.9 11.7 87% 75.84 1011.1
31 05:53 S 17 16.09 Fair CLR 13.9 11.7 87% 75.82 1010.7
31 04:53 S 11 16.09 Fair CLR 14.4 11.7 18.3 14.4 84% 75.79 1010.5
31 03:53 S 9 16.09 Fair CLR 14.4 11.7 84% 75.79 1010.4
31 02:53 S 11 16.09 Fair CLR 15 11.1 78% 75.77 1010.2
31 01:53 S 13 16.09 Fair CLR 16.1 11.7 75% 75.77 1010.2
31 00:53 S 9 16.09 Fair CLR 17.2 11.1 68% 75.79 1010.4
30 23:53 Vrbl 7 16.09 Fair CLR 17.2 11.1 68% 75.77 1010.1
30 22:53 S 9 16.09 Fair CLR 18.3 11.7 31.1 18.3 66% 75.77 1010.1
30 21:53 S 13 16.09 Fair CLR 20 11.7 59% 75.77 1010.0
30 20:53 S 13 16.09 Fair CLR 21.7 11.7 53% 75.74 1009.7
30 19:53 S 11 16.09 Fair CLR 24.4 11.1 43% 26 75.72 1009.3
30 18:53 SW 20 16.09 Fair CLR 27.8 9.4 32% 27 75.69 1009.2
30 17:53 SW 19 16.09 Fair CLR 30.6 8.3 25% 29 75.72 1009.3
30 16:53 SW 13 16.09 Fair CLR 31.1 10.6 31.7 21.1 28% 30 75.72 1009.5
30 15:53 Vrbl 6 16.09 Fair CLR 31.1 10 27% 30 75.77 1010.1
30 14:53 Calm 16.09 Fair CLR 29.4 11.7 33% 28 75.84 1011.0
30 13:53 Vrbl 6 16.09 Fair CLR 28.3 12.2 37% 28 75.9 1011.7
30 12:53 Vrbl 7 16.09 Fair CLR 26.1 12.2 42% 26 75.95 1012.3
30 11:53 W 7 16.09 Fair CLR 23.3 12.2 50% 75.97 1012.9
30 10:53 Vrbl 6 16.09 Fair CLR 21.1 12.2 21.1 13.9 57% 76.02 1013.4
Date Time (pdt) Wind (kph) Vis. (km) Weather Sky Cond. Air Dwpt Max. Min. Relative Humidity Wind Chill (°C) Heat Index (°C) altimeter (cm) sea level (mb) 1 hr 3 hr 6 hr
6 hour
Temperature (ºC) Pressure Precipitation (cm)